createdAt,value
2022-12-23T00:00:16.226Z,99869.28
2022-12-23T00:02:44.445Z,99867.63
2022-12-23T00:05:13.499Z,99869.50
2022-12-23T00:07:41.393Z,99871.41
2022-12-23T00:10:10.471Z,99875.78
2022-12-23T00:12:56.035Z,99870.34
2022-12-23T00:15:25.280Z,99874.94
2022-12-23T00:17:53.123Z,99868.69
2022-12-23T00:20:21.222Z,99876.03
2022-12-23T00:23:07.545Z,99868.69
2022-12-23T00:25:41.717Z,99870.59
2022-12-23T00:28:11.712Z,99867.06
2022-12-23T00:30:46.158Z,99869.78
2022-12-23T00:33:14.103Z,99868.69
2022-12-23T00:35:42.080Z,99876.03
2022-12-23T00:38:09.963Z,99869.78
2022-12-23T00:40:55.099Z,99874.38
2022-12-23T00:43:23.023Z,99871.66
2022-12-23T00:45:52.673Z,99876.47
2022-12-23T00:48:37.983Z,99882.50
2022-12-23T00:51:06.608Z,99878.97
2022-12-23T00:53:34.816Z,99883.56
2022-12-23T00:56:02.700Z,99884.63
2022-12-23T00:58:31.919Z,99889.00
2022-12-23T01:01:18.674Z,99893.38
2022-12-23T01:04:04.052Z,99885.47
2022-12-23T01:06:32.024Z,99882.75
2022-12-23T01:08:59.929Z,99884.63
2022-12-23T01:11:27.795Z,99890.06
2022-12-23T01:13:55.949Z,99891.94
2022-12-23T01:16:25.238Z,99893.84
2022-12-23T01:18:53.159Z,99903.63
2022-12-23T01:21:21.098Z,99903.63
2022-12-23T01:23:48.989Z,99909.06
2022-12-23T01:26:16.863Z,99913.44
2022-12-23T01:28:44.756Z,99915.56
2022-12-23T01:31:12.788Z,99915.56
2022-12-23T01:33:42.458Z,99919.09
2022-12-23T01:36:11.462Z,99914.59
2022-12-23T01:38:39.372Z,99926.41
2022-12-23T01:41:07.267Z,99927.25
2022-12-23T01:43:45.405Z,99935.63
2022-12-23T01:46:13.424Z,99936.44
2022-12-23T01:48:42.787Z,99940.00
2022-12-23T01:51:13.040Z,99938.31
2022-12-23T01:53:42.024Z,99947.31
2022-12-23T01:56:11.612Z,99942.97
2022-12-23T01:58:40.447Z,99946.47
2022-12-23T02:01:25.952Z,99947.31
2022-12-23T02:03:56.804Z,99947.56
2022-12-23T02:06:43.504Z,99951.09
2022-12-23T02:09:19.461Z,99955.72
2022-12-23T02:12:31.448Z,99948.38
2022-12-23T02:15:30.398Z,99942.13
2022-12-23T02:18:08.541Z,99937.75
2022-12-23T02:20:54.944Z,99889.22
2022-12-23T02:24:07.678Z,99938.81
2022-12-23T02:27:14.743Z,99944.25
2022-12-23T02:30:24.994Z,99954.28
2022-12-23T02:33:15.133Z,99967.03
2022-12-23T02:35:46.338Z,99967.28
2022-12-23T02:38:17.523Z,99961.47
2022-12-23T02:40:50.915Z,99967.03
2022-12-23T02:43:20.513Z,99975.41
2022-12-23T02:45:50.826Z,99984.97
2022-12-23T02:48:22.498Z,99982.25
2022-12-23T02:50:50.367Z,99982.25
2022-12-23T02:53:20.361Z,99965.94
2022-12-23T02:55:49.030Z,99960.97
2022-12-23T02:58:17.707Z,99981.44
2022-12-23T03:00:45.599Z,99987.69
2022-12-23T03:03:13.621Z,99993.94
2022-12-23T03:05:44.025Z,99992.28
2022-12-23T03:08:14.079Z,99991.72
2022-12-23T03:10:47.381Z,100002.09
2022-12-23T03:13:20.133Z,100010.22
2022-12-23T03:15:51.808Z,100020.25
2022-12-23T03:18:23.722Z,100027.59
2022-12-23T03:20:54.133Z,100038.44
2022-12-23T03:23:24.522Z,100034.06
2022-12-23T03:25:58.580Z,100043.88
2022-12-23T03:28:29.727Z,100046.59
2022-12-23T03:30:58.411Z,100044.94
2022-12-23T03:33:28.417Z,100037.59
2022-12-23T03:35:59.247Z,100031.34
2022-12-23T03:38:27.115Z,100015.88
2022-12-23T03:40:55.654Z,100016.72
2022-12-23T03:43:26.791Z,100024.03
2022-12-23T03:45:56.458Z,100033.22
2022-12-23T03:48:25.084Z,100034.31
2022-12-23T03:50:54.156Z,100040.59
2022-12-23T03:53:24.758Z,100033.09
2022-12-23T03:55:53.907Z,100035.16
2022-12-23T03:58:28.077Z,100044.09
2022-12-23T04:00:58.778Z,100034.06
2022-12-23T04:03:30.106Z,100030.53
2022-12-23T04:05:59.272Z,100034.06
2022-12-23T04:08:29.678Z,100018.59
2022-12-23T04:10:57.831Z,100024.03
2022-12-23T04:13:25.708Z,100020.25
2022-12-23T04:15:53.680Z,100031.94
2022-12-23T04:18:21.598Z,100030.91
2022-12-23T04:20:49.512Z,100023.81
2022-12-23T04:23:17.372Z,100022.16
2022-12-23T04:25:46.905Z,100016.16
2022-12-23T04:28:14.798Z,100020.03
2022-12-23T04:30:43.868Z,100021.94
2022-12-23T04:33:11.857Z,100028.19
2022-12-23T04:35:39.815Z,100026.31
2022-12-23T04:38:07.733Z,100025.47
2022-12-23T04:40:35.610Z,100036.06
2022-12-23T04:43:04.871Z,100034.19
2022-12-23T04:45:33.621Z,100021.69
2022-12-23T04:48:01.461Z,100033.34
2022-12-23T04:50:29.335Z,100035.03
2022-12-23T04:52:57.196Z,100036.06
2022-12-23T04:55:25.324Z,100044.00
2022-12-23T04:57:53.260Z,100038.78
2022-12-23T05:00:23.223Z,100040.44
2022-12-23T05:02:51.156Z,100041.28
2022-12-23T05:05:19.444Z,100039.41
2022-12-23T05:07:49.928Z,100052.97
2022-12-23T05:10:17.955Z,100051.91
2022-12-23T05:12:45.882Z,100047.53
2022-12-23T05:15:14.025Z,100058.41
2022-12-23T05:17:43.300Z,100052.97
2022-12-23T05:20:11.855Z,100051.09
2022-12-23T05:22:39.741Z,100060.06
2022-12-23T05:25:09.049Z,100055.69
2022-12-23T05:27:37.252Z,100046.72
2022-12-23T05:30:05.842Z,100046.72
2022-12-23T05:32:33.743Z,100053.81
2022-12-23T05:35:03.329Z,100055.69
2022-12-23T05:37:31.210Z,100058.41
2022-12-23T05:39:59.072Z,100063.00
2022-12-23T05:42:27.152Z,100060.28
2022-12-23T05:44:55.071Z,100059.22
2022-12-23T05:47:22.921Z,100058.41
2022-12-23T05:49:50.826Z,100063.00
2022-12-23T05:52:20.079Z,100066.31
2022-12-23T05:54:48.226Z,100073.63
2022-12-23T05:57:16.102Z,100084.72
2022-12-23T05:59:44.012Z,100077.41
2022-12-23T06:02:12.036Z,100095.38
2022-12-23T06:04:40.369Z,100097.25
2022-12-23T06:07:08.315Z,100091.81
2022-12-23T06:09:37.545Z,100094.53
2022-12-23T06:12:05.863Z,100095.38
2022-12-23T06:14:33.733Z,100102.69
2022-12-23T06:17:01.668Z,100094.53
2022-12-23T06:19:29.616Z,100096.41
2022-12-23T06:21:57.504Z,100098.06
2022-12-23T06:24:25.661Z,100096.41
2022-12-23T06:26:57.310Z,100087.22
2022-12-23T06:29:25.572Z,100089.09
2022-12-23T06:31:53.531Z,100080.94
2022-12-23T06:34:21.818Z,100078.72
2022-12-23T06:36:49.724Z,100078.25
2022-12-23T06:39:17.630Z,100079.06
2022-12-23T06:41:45.543Z,100078.25
2022-12-23T06:44:15.088Z,100076.34
2022-12-23T06:46:42.921Z,100079.28
2022-12-23T06:49:13.391Z,100067.38
2022-12-23T06:51:41.759Z,100076.34
2022-12-23T06:54:10.930Z,100062.75
2022-12-23T06:56:38.901Z,100079.28
2022-12-23T06:59:06.811Z,100078.25
2022-12-23T07:01:36.199Z,100071.16
2022-12-23T07:04:04.567Z,100080.13
2022-12-23T07:06:32.449Z,100067.38
2022-12-23T07:09:00.524Z,100079.28
2022-12-23T07:11:28.415Z,100084.50
2022-12-23T07:13:56.785Z,100085.34
2022-12-23T07:16:24.795Z,100105.38
2022-12-23T07:18:54.087Z,100116.25
2022-12-23T07:21:28.889Z,100136.91
2022-12-23T07:23:57.479Z,100133.38
2022-12-23T07:26:25.432Z,100133.38
2022-12-23T07:28:53.325Z,100138.81
2022-12-23T07:31:21.323Z,100146.94
2022-12-23T07:33:49.610Z,100143.41
2022-12-23T07:36:18.930Z,100138.81
2022-12-23T07:38:47.018Z,100147.19
2022-12-23T07:41:14.907Z,100147.78
2022-12-23T07:43:43.084Z,100147.78
2022-12-23T07:46:11.060Z,100137.75
2022-12-23T07:48:39.003Z,100137.75
2022-12-23T07:51:07.107Z,100146.94
2022-12-23T07:53:36.859Z,100148.63
2022-12-23T07:56:05.240Z,100149.66
2022-12-23T07:58:33.169Z,100161.34
2022-12-23T08:01:02.443Z,100150.50
2022-12-23T08:03:30.545Z,100146.94
2022-12-23T08:06:02.659Z,100149.44
2022-12-23T08:08:30.646Z,100149.44
2022-12-23T08:11:01.298Z,100147.78
2022-12-23T08:13:29.271Z,100133.38
2022-12-23T08:15:57.861Z,100132.06
2022-12-23T08:18:25.754Z,100131.28
2022-12-23T08:20:57.263Z,100135.63
2022-12-23T08:23:25.682Z,100136.69
2022-12-23T08:26:01.653Z,100133.16
2022-12-23T08:28:30.085Z,100122.75
2022-12-23T08:31:04.740Z,100140.22
2022-12-23T08:33:32.692Z,100121.22
2022-12-23T08:36:00.606Z,100111.44
2022-12-23T08:38:28.503Z,100114.16
2022-12-23T08:40:56.374Z,100113.06
2022-12-23T08:43:30.239Z,100119.56
2022-12-23T08:46:01.685Z,100109.53
2022-12-23T08:48:29.655Z,100110.59
2022-12-23T08:50:57.586Z,100121.47
2022-12-23T08:53:25.517Z,100107.06
2022-12-23T08:55:53.664Z,100123.34
2022-12-23T08:58:21.552Z,100127.72
2022-12-23T09:00:50.855Z,100120.41
2022-12-23T09:03:18.838Z,100130.66
2022-12-23T09:05:47.284Z,100118.75
2022-12-23T09:08:15.196Z,100124.19
2022-12-23T09:10:43.604Z,100129.84
2022-12-23T09:13:16.252Z,100130.44
2022-12-23T09:15:48.297Z,100126.88
2022-12-23T09:18:17.574Z,100130.44
2022-12-23T09:20:45.449Z,100138.59
2022-12-23T09:23:13.361Z,100135.88
2022-12-23T09:25:42.016Z,100133.16
2022-12-23T09:28:10.500Z,100117.69
2022-12-23T09:30:38.421Z,100116.03
2022-12-23T09:33:06.313Z,100112.25
2022-12-23T09:35:35.866Z,100108.72
2022-12-23T09:38:03.789Z,100108.72
2022-12-23T09:40:33.182Z,100084.94
2022-12-23T09:43:06.343Z,100096.41
2022-12-23T09:45:46.042Z,100089.72
2022-12-23T09:48:15.964Z,100089.72
2022-12-23T09:50:45.616Z,100091.59
2022-12-23T09:53:14.904Z,100094.06
2022-12-23T09:55:47.283Z,100084.84
2022-12-23T09:58:21.011Z,100074.81
2022-12-23T10:00:55.073Z,100062.16
2022-12-23T10:03:25.363Z,100059.84
2022-12-23T10:06:01.152Z,100057.69
2022-12-23T10:08:31.461Z,100054.16
2022-12-23T10:11:01.312Z,100056.03
2022-12-23T10:13:30.622Z,100016.41
2022-12-23T10:15:59.997Z,100057.56
2022-12-23T10:18:34.570Z,100047.19
2022-12-23T10:21:05.415Z,100056.53
2022-12-23T10:23:34.382Z,100043.78
2022-12-23T10:26:02.269Z,100029.38
2022-12-23T10:28:30.263Z,100020.38
2022-12-23T10:33:56.079Z,99882.19
2022-12-23T10:36:30.548Z,99995.13
2022-12-23T10:39:01.895Z,99997.84
2022-12-23T10:41:34.623Z,99995.34
2022-12-23T10:44:23.177Z,99995.13
2022-12-23T10:46:54.085Z,100000.56
2022-12-23T10:49:24.910Z,99993.25
2022-12-23T10:51:56.020Z,99981.31
2022-12-23T10:54:24.988Z,99981.09
2022-12-23T10:56:52.821Z,99987.59
2022-12-23T10:59:23.123Z,99990.06
2022-12-23T11:01:52.748Z,99968.47
2022-12-23T11:04:21.503Z,99975.66
2022-12-23T11:07:10.582Z,99973.78
2022-12-23T11:09:41.849Z,99966.69
2022-12-23T11:12:10.627Z,99962.91
2022-12-23T11:14:40.020Z,99957.47
2022-12-23T11:17:20.279Z,99952.84
2022-12-23T11:19:48.195Z,99954.50
2022-12-23T11:22:23.681Z,99940.81
2022-12-23T11:24:53.238Z,99951.22
2022-12-23T11:27:21.152Z,99948.75
2022-12-23T11:29:50.366Z,99877.03
2022-12-23T11:32:19.808Z,99925.97
2022-12-23T11:34:48.063Z,99917.81
2022-12-23T11:37:25.991Z,99911.56
2022-12-23T11:39:55.291Z,99900.69
2022-12-23T11:42:27.252Z,99897.97
2022-12-23T11:44:56.025Z,99897.97
2022-12-23T11:47:30.779Z,99889.00
2022-12-23T11:49:59.225Z,99873.53
2022-12-23T11:52:27.570Z,99868.13
2022-12-23T11:54:57.998Z,99852.66
2022-12-23T11:57:31.928Z,99717.72
2022-12-23T12:00:01.493Z,99828.22
2022-12-23T12:02:33.471Z,99822.78
2022-12-23T12:05:03.299Z,99820.06
2022-12-23T12:07:31.595Z,99819.25
2022-12-23T12:10:01.391Z,99815.69
2022-12-23T12:12:29.384Z,99818.41
2022-12-23T12:14:58.519Z,99809.44
2022-12-23T12:17:28.406Z,99795.75
2022-12-23T12:20:00.341Z,99792.09
2022-12-23T12:22:32.454Z,99795.03
2022-12-23T12:25:02.800Z,99790.44
2022-12-23T12:27:34.811Z,99779.56
2022-12-23T12:30:08.389Z,99783.13
2022-12-23T12:32:42.113Z,99776.84
2022-12-23T12:35:13.851Z,99767.28
2022-12-23T12:37:44.181Z,99743.38
2022-12-23T12:40:19.384Z,99756.44
2022-12-23T12:42:49.136Z,99754.91
2022-12-23T12:45:19.094Z,99750.31
2022-12-23T12:47:54.945Z,99735.91
2022-12-23T12:50:27.884Z,99735.91
2022-12-23T12:52:56.504Z,99720.66
2022-12-23T12:55:29.602Z,99709.81
2022-12-23T12:57:57.646Z,99697.88
2022-12-23T13:00:25.680Z,99707.91
2022-12-23T13:03:09.077Z,99697.88
2022-12-23T13:05:54.110Z,99692.47
2022-12-23T13:08:32.395Z,99669.81
2022-12-23T13:11:04.206Z,99658.94
2022-12-23T13:13:37.249Z,99667.09
2022-12-23T13:16:09.159Z,99692.34
2022-12-23T13:18:40.342Z,99709.81
2022-12-23T13:21:12.261Z,99706.28
2022-12-23T13:23:44.667Z,99700.50
2022-12-23T13:26:23.016Z,99627.03
2022-12-23T13:28:55.530Z,99594.22
2022-12-23T13:31:29.484Z,99610.75
2022-12-23T13:33:59.226Z,99617.00
2022-12-23T13:36:37.422Z,99588.22
2022-12-23T13:39:18.497Z,99591.72
2022-12-23T13:41:48.548Z,99603.69
2022-12-23T13:44:18.656Z,99595.53
2022-12-23T13:46:51.684Z,99568.31
2022-12-23T13:49:25.828Z,99571.66
2022-12-23T13:51:56.510Z,99573.56
2022-12-23T13:54:29.105Z,99581.13
2022-12-23T13:57:08.020Z,99567.56
2022-12-23T13:59:39.564Z,99548.56
2022-12-23T14:02:44.665Z,99545.56
2022-12-23T14:05:36.052Z,99551.00
2022-12-23T14:08:06.649Z,99542.88
2022-12-23T14:10:34.656Z,99532.00
2022-12-23T14:13:08.484Z,99520.59
2022-12-23T14:15:59.659Z,99527.66
2022-12-23T14:19:04.773Z,99534.16
2022-12-23T14:21:39.063Z,99520.59
2022-12-23T14:24:42.888Z,99515.06
2022-12-23T14:27:38.386Z,99516.81
2022-12-23T14:30:12.704Z,99501.56
2022-12-23T14:32:44.301Z,99498.88
2022-12-23T14:35:29.218Z,99488.84
2022-12-23T14:38:10.258Z,99524.94
2022-12-23T14:41:23.904Z,99507.00
2022-12-23T14:44:02.662Z,99496.97
2022-12-23T14:46:55.309Z,99498.88
2022-12-23T14:49:43.040Z,99488.00
2022-12-23T14:52:44.834Z,99484.22
2022-12-23T14:55:44.967Z,99487.19
2022-12-23T14:58:35.363Z,99500.53
2022-12-23T15:01:04.671Z,99511.38
2022-12-23T15:03:35.985Z,99507.84
2022-12-23T15:06:05.931Z,99500.25
2022-12-23T15:08:35.019Z,99495.91
2022-12-23T15:11:02.957Z,99494.81
2022-12-23T15:13:30.849Z,99505.69
2022-12-23T15:16:01.718Z,99506.50
2022-12-23T15:18:30.342Z,99500.00
2022-12-23T15:21:03.929Z,99501.06
2022-12-23T15:23:33.304Z,99515.47
2022-12-23T15:26:01.293Z,99506.41
2022-12-23T15:28:36.191Z,99519.00
2022-12-23T15:31:05.026Z,99517.13
2022-12-23T15:36:28.478Z,99504.38
2022-12-23T15:38:56.411Z,99517.94
2022-12-23T15:41:24.295Z,99514.41
2022-12-23T15:43:52.601Z,99522.31
2022-12-23T15:46:28.650Z,99524.22
2022-12-23T15:48:57.936Z,99526.94
2022-12-23T15:52:05.209Z,99522.31
2022-12-23T15:54:22.298Z,99521.22
2022-12-23T15:56:51.135Z,99524.44
2022-12-23T15:59:22.724Z,99529.38
2022-12-23T16:01:51.070Z,99537.50
2022-12-23T16:04:20.896Z,99534.56
2022-12-23T16:06:51.131Z,99537.50
2022-12-23T16:09:33.173Z,99539.44
2022-12-23T16:12:02.304Z,99534.81
2022-12-23T16:14:35.874Z,99539.16
2022-12-23T16:17:15.222Z,99550.28
2022-12-23T16:19:44.861Z,99546.25
2022-12-23T16:22:29.149Z,99551.69
2022-12-23T16:25:03.084Z,99552.75
2022-12-23T16:27:36.184Z,99551.69
2022-12-23T16:30:10.587Z,99547.31
2022-12-23T16:32:45.531Z,99517.84
2022-12-23T16:35:14.171Z,99555.47
2022-12-23T16:37:46.103Z,99562.53
2022-12-23T16:40:19.543Z,99562.31
2022-12-23T16:42:47.422Z,99577.53
2022-12-23T16:45:16.263Z,99572.91
2022-12-23T16:47:44.161Z,99572.91
2022-12-23T16:50:13.193Z,99582.69
2022-12-23T16:52:41.161Z,99579.16
2022-12-23T16:55:18.435Z,99591.91
2022-12-23T16:57:46.809Z,99606.06
2022-12-23T17:00:16.328Z,99610.91
2022-12-23T17:02:44.382Z,99616.94
2022-12-23T17:05:16.380Z,99618.81
2022-12-23T17:07:45.610Z,99634.06
2022-12-23T17:10:16.220Z,99629.69
2022-12-23T17:12:44.330Z,99640.00
2022-12-23T17:15:17.128Z,99612.72
2022-12-23T17:17:45.113Z,99644.84
2022-12-23T17:20:13.695Z,99665.72
2022-12-23T17:22:41.669Z,99667.16
2022-12-23T17:25:11.469Z,99666.06
2022-12-23T17:27:41.097Z,99671.47
2022-12-23T17:30:15.093Z,99674.19
2022-12-23T17:32:42.994Z,99684.22
2022-12-23T17:35:14.967Z,99682.34
2022-12-23T17:37:43.523Z,99683.44
2022-12-23T17:40:12.927Z,99682.63
2022-12-23T17:42:42.219Z,99683.66
2022-12-23T17:45:21.651Z,99695.38
2022-12-23T17:47:49.694Z,99696.44
2022-12-23T17:50:18.117Z,99701.84
2022-12-23T17:52:46.211Z,99700.19
2022-12-23T17:55:17.835Z,99712.94
2022-12-23T17:57:47.254Z,99711.88
2022-12-23T18:00:25.123Z,99715.44
2022-12-23T18:02:57.663Z,99707.28
2022-12-23T18:05:26.864Z,99680.91
2022-12-23T18:07:55.424Z,99716.50
2022-12-23T18:10:25.424Z,99722.50
2022-12-23T18:12:56.046Z,99718.97
2022-12-23T18:15:24.896Z,99721.69
2022-12-23T18:17:53.062Z,99733.13
2022-12-23T18:20:23.047Z,99733.38
2022-12-23T18:22:52.643Z,99743.19
2022-12-23T18:25:21.741Z,99743.97
2022-12-23T18:27:49.705Z,99743.19
2022-12-23T18:30:19.557Z,99739.63
2022-12-23T18:32:47.452Z,99750.25
2022-12-23T18:35:33.262Z,99747.78
2022-12-23T18:38:01.202Z,99765.47
2022-12-23T18:40:32.968Z,99764.91
2022-12-23T18:43:01.380Z,99767.63
2022-12-23T18:45:36.954Z,99766.53
2022-12-23T18:48:05.880Z,99780.09
2022-12-23T18:50:34.408Z,99774.69
2022-12-23T18:53:02.306Z,99772.78
2022-12-23T18:55:30.871Z,99775.50
2022-12-23T18:57:59.004Z,99780.09
2022-12-23T19:00:28.238Z,99775.78
2022-12-23T19:02:57.651Z,99780.09
2022-12-23T19:05:26.649Z,99784.72
2022-12-23T19:07:56.092Z,99786.88
2022-12-23T19:10:25.376Z,99797.50
2022-12-23T19:12:53.549Z,99795.56
2022-12-23T19:15:21.668Z,99801.84
2022-12-23T19:17:50.324Z,99792.84
2022-12-23T19:20:19.921Z,99793.94
2022-12-23T19:22:48.073Z,99799.38
2022-12-23T19:25:16.962Z,99792.84
2022-12-23T19:27:44.909Z,99812.69
2022-12-23T19:30:14.387Z,99806.44
2022-12-23T19:32:42.335Z,99801.84
2022-12-23T19:35:12.339Z,99795.00
2022-12-23T19:37:41.567Z,99808.09
2022-12-23T19:40:10.861Z,99818.13
2022-12-23T19:42:38.962Z,99825.44
2022-12-23T19:45:09.229Z,99829.25
2022-12-23T19:47:37.209Z,99830.06
2022-12-23T19:50:06.071Z,99840.94
2022-12-23T19:52:33.981Z,99840.13
2022-12-23T19:55:03.379Z,99856.41
2022-12-23T19:57:31.544Z,99859.13
2022-12-23T19:59:59.706Z,99861.84
2022-12-23T20:02:27.730Z,99868.34
2022-12-23T20:04:55.713Z,99870.22
2022-12-23T20:07:23.593Z,99874.59
2022-12-23T20:09:51.779Z,99877.31
2022-12-23T20:12:21.043Z,99882.75
2022-12-23T20:14:48.940Z,99886.28
2022-12-23T20:17:16.844Z,99880.03
2022-12-23T20:19:46.280Z,99886.28
2022-12-23T20:22:14.414Z,99894.66
2022-12-23T20:24:42.307Z,99895.47
2022-12-23T20:27:12.545Z,99900.09
2022-12-23T20:29:43.577Z,99892.44
2022-12-23T20:32:11.653Z,99909.28
2022-12-23T20:34:40.309Z,99917.44
2022-12-23T20:37:08.424Z,99922.31
2022-12-23T20:39:36.561Z,99932.06
2022-12-23T20:42:05.295Z,99932.91
2022-12-23T20:44:35.769Z,99910.13
2022-12-23T20:47:06.095Z,99935.63
2022-12-23T20:49:34.506Z,99938.34
2022-12-23T20:52:02.504Z,99946.75
2022-12-23T20:54:33.758Z,99947.31
2022-12-23T20:57:02.085Z,99954.63
2022-12-23T20:59:29.966Z,99962.19
2022-12-23T21:01:59.127Z,99954.63
2022-12-23T21:04:28.779Z,99952.16
2022-12-23T21:06:56.654Z,99971.19
2022-12-23T21:09:24.525Z,99963.03
2022-12-23T21:11:52.743Z,99967.63
2022-12-23T21:14:20.593Z,99982.03
2022-12-23T21:16:48.575Z,99983.94
2022-12-23T21:19:17.462Z,99990.41
2022-12-23T21:21:46.769Z,99980.84
2022-12-23T21:24:14.832Z,99984.97
2022-12-23T21:26:42.841Z,99993.97
2022-12-23T21:29:11.267Z,99986.03
2022-12-23T21:31:40.894Z,99997.72
2022-12-23T21:34:08.964Z,99983.31
2022-12-23T21:36:38.547Z,99994.41
2022-12-23T21:39:07.931Z,99986.53
2022-12-23T21:41:37.188Z,100002.34
2022-12-23T21:44:05.461Z,100011.31
2022-12-23T21:46:33.396Z,100021.13
2022-12-23T21:49:01.353Z,100018.03
2022-12-23T21:51:36.913Z,100033.88
2022-12-23T21:54:09.393Z,100021.13
2022-12-23T21:56:37.403Z,100023.84
2022-12-23T21:59:06.659Z,100027.59
2022-12-23T22:01:35.221Z,100042.22
2022-12-23T22:04:03.322Z,100039.28
2022-12-23T22:06:32.026Z,100041.19
2022-12-23T22:08:59.994Z,100035.75
2022-12-23T22:11:30.200Z,100041.19
2022-12-23T22:13:58.126Z,100050.16
2022-12-23T22:16:26.954Z,100051.00
2022-12-23T22:18:55.109Z,100054.75
2022-12-23T22:21:23.928Z,100066.44
2022-12-23T22:23:52.213Z,100077.31
2022-12-23T22:26:25.226Z,100070.22
2022-12-23T22:28:55.603Z,100071.06
2022-12-23T22:31:28.504Z,100078.47
2022-12-23T22:33:56.454Z,100086.50
2022-12-23T22:36:24.424Z,100089.22
2022-12-23T22:38:52.827Z,100094.66
2022-12-23T22:41:20.841Z,100100.31
2022-12-23T22:43:48.812Z,100107.41
2022-12-23T22:46:18.455Z,100119.09
2022-12-23T22:48:46.698Z,100130.78
2022-12-23T22:51:15.765Z,100135.41
2022-12-23T22:53:43.636Z,100121.81
2022-12-23T22:56:11.928Z,100132.69
2022-12-23T22:58:39.809Z,100131.28
2022-12-23T23:01:07.812Z,100134.78
2022-12-23T23:03:37.062Z,100139.16
2022-12-23T23:06:05.930Z,100141.88
2022-12-23T23:08:34.129Z,100141.88
2022-12-23T23:11:03.777Z,100153.78
2022-12-23T23:13:32.565Z,100153.00
2022-12-23T23:16:00.689Z,100157.34
2022-12-23T23:18:28.767Z,100151.06
2022-12-23T23:20:58.353Z,100155.72
2022-12-23T23:23:26.247Z,100158.44
2022-12-23T23:25:54.114Z,100169.28
2022-12-23T23:28:22.089Z,100157.59
2022-12-23T23:30:59.057Z,100164.06
2022-12-23T23:33:37.879Z,100170.34
2022-12-23T23:36:08.382Z,100168.91
2022-12-23T23:38:36.358Z,100168.69
2022-12-23T23:41:04.423Z,100181.19
2022-12-23T23:43:32.330Z,100176.81
2022-12-23T23:46:00.280Z,100177.66
2022-12-23T23:48:28.285Z,100188.50
2022-12-23T23:51:04.092Z,100195.00
2022-12-23T23:53:33.392Z,100184.59
2022-12-23T23:56:05.515Z,100191.44
2022-12-23T23:58:33.480Z,100203.38
